sensor_id;sensor_type;location;lat;lon;timestamp;temperature;humidity
18733;DHT22;9495;51.210;2.934;2022-10-31T00:00:48;13.10;99.90
18733;DHT22;9495;51.210;2.934;2022-10-31T00:03:17;13.10;99.90
18733;DHT22;9495;51.210;2.934;2022-10-31T00:05:47;13.10;99.90
18733;DHT22;9495;51.210;2.934;2022-10-31T00:08:16;12.90;99.90
18733;DHT22;9495;51.210;2.934;2022-10-31T00:10:45;13.00;99.90
18733;DHT22;9495;51.210;2.934;2022-10-31T00:13:14;12.90;99.90
18733;DHT22;9495;51.210;2.934;2022-10-31T00:15:44;12.90;99.90
18733;DHT22;9495;51.210;2.934;2022-10-31T00:18:12;12.90;99.90
18733;DHT22;9495;51.210;2.934;2022-10-31T00:20:40;12.90;99.90
18733;DHT22;9495;51.210;2.934;2022-10-31T00:23:09;13.00;99.90
18733;DHT22;9495;51.210;2.934;2022-10-31T00:25:39;13.00;99.90
18733;DHT22;9495;51.210;2.934;2022-10-31T00:28:09;13.00;99.90
18733;DHT22;9495;51.210;2.934;2022-10-31T00:30:39;13.00;99.90
18733;DHT22;9495;51.210;2.934;2022-10-31T00:33:08;12.90;99.90
18733;DHT22;9495;51.210;2.934;2022-10-31T00:35:37;12.90;99.90
18733;DHT22;9495;51.210;2.934;2022-10-31T00:38:05;12.90;99.90
18733;DHT22;9495;51.210;2.934;2022-10-31T00:40:33;12.80;99.90
18733;DHT22;9495;51.210;2.934;2022-10-31T00:43:01;12.80;99.90
18733;DHT22;9495;51.210;2.934;2022-10-31T00:45:30;12.70;99.90
18733;DHT22;9495;51.210;2.934;2022-10-31T00:47:59;12.70;99.90
18733;DHT22;9495;51.210;2.934;2022-10-31T00:50:29;12.70;99.90
18733;DHT22;9495;51.210;2.934;2022-10-31T00:52:57;12.70;99.90
18733;DHT22;9495;51.210;2.934;2022-10-31T00:55:25;12.70;99.90
18733;DHT22;9495;51.210;2.934;2022-10-31T00:57:54;12.60;99.90
18733;DHT22;9495;51.210;2.934;2022-10-31T01:00:22;12.60;99.90
18733;DHT22;9495;51.210;2.934;2022-10-31T01:02:51;12.50;99.90
18733;DHT22;9495;51.210;2.934;2022-10-31T01:05:19;12.50;99.90
18733;DHT22;9495;51.210;2.934;2022-10-31T01:07:49;12.50;99.90
18733;DHT22;9495;51.210;2.934;2022-10-31T01:10:17;12.50;99.90
18733;DHT22;9495;51.210;2.934;2022-10-31T01:12:47;12.40;99.90
18733;DHT22;9495;51.210;2.934;2022-10-31T01:15:18;12.50;99.90
18733;DHT22;9495;51.210;2.934;2022-10-31T01:17:47;12.50;99.90
18733;DHT22;9495;51.210;2.934;2022-10-31T01:20:16;12.40;99.90
18733;DHT22;9495;51.210;2.934;2022-10-31T01:22:45;12.40;99.90
18733;DHT22;9495;51.210;2.934;2022-10-31T01:25:14;12.40;99.90
18733;DHT22;9495;51.210;2.934;2022-10-31T01:27:43;12.40;99.90
18733;DHT22;9495;51.210;2.934;2022-10-31T01:30:12;12.40;99.90
18733;DHT22;9495;51.210;2.934;2022-10-31T01:32:40;12.30;99.90
18733;DHT22;9495;51.210;2.934;2022-10-31T01:35:08;12.30;99.90
18733;DHT22;9495;51.210;2.934;2022-10-31T01:37:37;12.30;99.90
18733;DHT22;9495;51.210;2.934;2022-10-31T01:40:06;12.20;99.90
18733;DHT22;9495;51.210;2.934;2022-10-31T01:42:36;12.20;99.90
18733;DHT22;9495;51.210;2.934;2022-10-31T01:45:05;12.20;99.90
18733;DHT22;9495;51.210;2.934;2022-10-31T01:47:38;12.20;99.90
18733;DHT22;9495;51.210;2.934;2022-10-31T01:50:24;12.30;99.90
18733;DHT22;9495;51.210;2.934;2022-10-31T01:52:54;12.30;99.90
18733;DHT22;9495;51.210;2.934;2022-10-31T01:55:25;12.30;99.90
18733;DHT22;9495;51.210;2.934;2022-10-31T01:58:02;12.30;99.90
18733;DHT22;9495;51.210;2.934;2022-10-31T02:00:31;12.30;99.90
18733;DHT22;9495;51.210;2.934;2022-10-31T02:03:00;12.30;99.90
18733;DHT22;9495;51.210;2.934;2022-10-31T02:05:31;12.30;99.90
18733;DHT22;9495;51.210;2.934;2022-10-31T02:08:03;12.30;99.90
18733;DHT22;9495;51.210;2.934;2022-10-31T02:10:33;12.20;99.90
18733;DHT22;9495;51.210;2.934;2022-10-31T02:13:05;12.20;99.90
18733;DHT22;9495;51.210;2.934;2022-10-31T02:15:35;12.20;99.90
18733;DHT22;9495;51.210;2.934;2022-10-31T02:18:05;12.20;99.90
18733;DHT22;9495;51.210;2.934;2022-10-31T02:20:42;12.10;99.90
18733;DHT22;9495;51.210;2.934;2022-10-31T02:23:39;12.10;99.90
18733;DHT22;9495;51.210;2.934;2022-10-31T02:32:27;12.10;99.90
18733;DHT22;9495;51.210;2.934;2022-10-31T02:35:03;12.10;99.90
18733;DHT22;9495;51.210;2.934;2022-10-31T02:37:38;12.10;99.90
18733;DHT22;9495;51.210;2.934;2022-10-31T02:40:15;12.10;99.90
18733;DHT22;9495;51.210;2.934;2022-10-31T02:42:50;12.10;99.90
18733;DHT22;9495;51.210;2.934;2022-10-31T02:45:24;12.10;99.90
18733;DHT22;9495;51.210;2.934;2022-10-31T02:47:58;12.10;99.90
18733;DHT22;9495;51.210;2.934;2022-10-31T02:50:30;12.00;99.90
18733;DHT22;9495;51.210;2.934;2022-10-31T02:53:01;12.00;99.90
18733;DHT22;9495;51.210;2.934;2022-10-31T02:55:47;12.00;99.90
18733;DHT22;9495;51.210;2.934;2022-10-31T02:58:20;12.00;99.90
18733;DHT22;9495;51.210;2.934;2022-10-31T03:01:03;12.00;99.90
18733;DHT22;9495;51.210;2.934;2022-10-31T03:03:44;12.00;99.90
18733;DHT22;9495;51.210;2.934;2022-10-31T03:06:22;12.00;99.90
18733;DHT22;9495;51.210;2.934;2022-10-31T03:08:57;11.90;99.90
18733;DHT22;9495;51.210;2.934;2022-10-31T03:11:32;11.90;99.90
18733;DHT22;9495;51.210;2.934;2022-10-31T03:14:09;11.90;99.90
18733;DHT22;9495;51.210;2.934;2022-10-31T03:16:42;11.90;99.90
18733;DHT22;9495;51.210;2.934;2022-10-31T03:19:17;11.80;99.90
18733;DHT22;9495;51.210;2.934;2022-10-31T03:21:47;11.80;99.90
18733;DHT22;9495;51.210;2.934;2022-10-31T03:24:18;11.80;99.90
18733;DHT22;9495;51.210;2.934;2022-10-31T03:26:49;11.80;99.90
18733;DHT22;9495;51.210;2.934;2022-10-31T03:29:21;11.80;99.90
18733;DHT22;9495;51.210;2.934;2022-10-31T03:31:54;11.80;99.90
18733;DHT22;9495;51.210;2.934;2022-10-31T03:34:25;11.80;99.90
18733;DHT22;9495;51.210;2.934;2022-10-31T03:36:57;11.80;99.90
18733;DHT22;9495;51.210;2.934;2022-10-31T03:39:27;11.80;99.90
18733;DHT22;9495;51.210;2.934;2022-10-31T03:42:02;11.80;99.90
18733;DHT22;9495;51.210;2.934;2022-10-31T03:44:33;11.80;99.90
18733;DHT22;9495;51.210;2.934;2022-10-31T03:47:03;11.80;99.90
18733;DHT22;9495;51.210;2.934;2022-10-31T03:49:34;11.80;99.90
18733;DHT22;9495;51.210;2.934;2022-10-31T03:52:07;11.80;99.90
18733;DHT22;9495;51.210;2.934;2022-10-31T03:54:42;11.90;99.90
18733;DHT22;9495;51.210;2.934;2022-10-31T03:57:17;11.80;99.90
18733;DHT22;9495;51.210;2.934;2022-10-31T03:59:50;11.80;99.90
18733;DHT22;9495;51.210;2.934;2022-10-31T04:02:21;11.90;99.90
18733;DHT22;9495;51.210;2.934;2022-10-31T04:04:51;11.90;99.90
18733;DHT22;9495;51.210;2.934;2022-10-31T04:07:21;11.90;99.90
18733;DHT22;9495;51.210;2.934;2022-10-31T04:09:54;11.90;99.90
18733;DHT22;9495;51.210;2.934;2022-10-31T04:12:24;11.90;99.90
18733;DHT22;9495;51.210;2.934;2022-10-31T04:14:55;11.90;99.90
18733;DHT22;9495;51.210;2.934;2022-10-31T04:17:26;12.00;99.90
18733;DHT22;9495;51.210;2.934;2022-10-31T04:19:59;11.90;99.90
18733;DHT22;9495;51.210;2.934;2022-10-31T04:22:27;11.90;99.90
18733;DHT22;9495;51.210;2.934;2022-10-31T04:24:55;11.90;99.90
18733;DHT22;9495;51.210;2.934;2022-10-31T04:27:24;11.90;99.90
18733;DHT22;9495;51.210;2.934;2022-10-31T04:29:52;11.90;99.90
18733;DHT22;9495;51.210;2.934;2022-10-31T04:32:20;11.90;99.90
18733;DHT22;9495;51.210;2.934;2022-10-31T04:34:48;11.90;99.90
18733;DHT22;9495;51.210;2.934;2022-10-31T04:37:18;11.90;99.90
18733;DHT22;9495;51.210;2.934;2022-10-31T04:39:46;11.90;99.90
18733;DHT22;9495;51.210;2.934;2022-10-31T04:42:15;11.80;99.90
18733;DHT22;9495;51.210;2.934;2022-10-31T04:44:46;11.90;99.90
18733;DHT22;9495;51.210;2.934;2022-10-31T04:47:15;11.90;99.90
18733;DHT22;9495;51.210;2.934;2022-10-31T04:49:43;11.80;99.90
18733;DHT22;9495;51.210;2.934;2022-10-31T04:52:13;11.80;99.90
18733;DHT22;9495;51.210;2.934;2022-10-31T04:54:43;11.70;99.90
18733;DHT22;9495;51.210;2.934;2022-10-31T04:57:11;11.70;99.90
18733;DHT22;9495;51.210;2.934;2022-10-31T04:59:39;11.70;99.90
18733;DHT22;9495;51.210;2.934;2022-10-31T05:02:11;11.70;99.90
18733;DHT22;9495;51.210;2.934;2022-10-31T05:04:41;11.70;99.90
18733;DHT22;9495;51.210;2.934;2022-10-31T05:07:10;11.60;99.90
18733;DHT22;9495;51.210;2.934;2022-10-31T05:09:38;11.60;99.90
18733;DHT22;9495;51.210;2.934;2022-10-31T05:12:08;11.60;99.90
18733;DHT22;9495;51.210;2.934;2022-10-31T05:14:36;11.60;99.90
18733;DHT22;9495;51.210;2.934;2022-10-31T05:17:04;11.60;99.90
18733;DHT22;9495;51.210;2.934;2022-10-31T05:19:32;11.60;99.90
18733;DHT22;9495;51.210;2.934;2022-10-31T05:22:01;11.60;99.90
18733;DHT22;9495;51.210;2.934;2022-10-31T05:24:29;11.60;99.90
18733;DHT22;9495;51.210;2.934;2022-10-31T05:26:58;11.60;99.90
18733;DHT22;9495;51.210;2.934;2022-10-31T05:29:27;11.50;99.90
18733;DHT22;9495;51.210;2.934;2022-10-31T05:32:00;11.60;99.90
18733;DHT22;9495;51.210;2.934;2022-10-31T05:34:28;11.50;99.90
18733;DHT22;9495;51.210;2.934;2022-10-31T05:36:56;11.50;99.90
18733;DHT22;9495;51.210;2.934;2022-10-31T05:39:25;11.50;99.90
18733;DHT22;9495;51.210;2.934;2022-10-31T05:41:53;11.50;99.90
18733;DHT22;9495;51.210;2.934;2022-10-31T05:44:21;11.50;99.90
18733;DHT22;9495;51.210;2.934;2022-10-31T05:46:51;11.40;99.90
18733;DHT22;9495;51.210;2.934;2022-10-31T05:49:19;11.50;99.90
18733;DHT22;9495;51.210;2.934;2022-10-31T05:51:47;11.40;99.90
18733;DHT22;9495;51.210;2.934;2022-10-31T05:54:16;11.40;99.90
18733;DHT22;9495;51.210;2.934;2022-10-31T05:56:44;11.30;99.90
18733;DHT22;9495;51.210;2.934;2022-10-31T05:59:12;11.30;99.90
18733;DHT22;9495;51.210;2.934;2022-10-31T06:01:40;11.30;99.90
18733;DHT22;9495;51.210;2.934;2022-10-31T06:04:12;11.30;99.90
18733;DHT22;9495;51.210;2.934;2022-10-31T06:06:41;11.30;99.90
18733;DHT22;9495;51.210;2.934;2022-10-31T06:09:09;11.30;99.90
18733;DHT22;9495;51.210;2.934;2022-10-31T06:11:38;11.20;99.90
18733;DHT22;9495;51.210;2.934;2022-10-31T06:14:06;11.20;99.90
18733;DHT22;9495;51.210;2.934;2022-10-31T06:16:35;11.30;99.90
18733;DHT22;9495;51.210;2.934;2022-10-31T06:19:03;11.20;99.90
18733;DHT22;9495;51.210;2.934;2022-10-31T06:21:32;11.20;99.90
18733;DHT22;9495;51.210;2.934;2022-10-31T06:24:01;11.20;99.90
18733;DHT22;9495;51.210;2.934;2022-10-31T06:26:29;11.30;99.90
18733;DHT22;9495;51.210;2.934;2022-10-31T06:28:57;11.30;99.90
18733;DHT22;9495;51.210;2.934;2022-10-31T06:31:30;11.30;99.90
18733;DHT22;9495;51.210;2.934;2022-10-31T06:33:58;11.30;99.90
18733;DHT22;9495;51.210;2.934;2022-10-31T06:36:26;11.20;99.90
18733;DHT22;9495;51.210;2.934;2022-10-31T06:38:56;11.20;99.90
18733;DHT22;9495;51.210;2.934;2022-10-31T06:41:24;11.20;99.90
18733;DHT22;9495;51.210;2.934;2022-10-31T06:43:53;11.20;99.90
18733;DHT22;9495;51.210;2.934;2022-10-31T06:46:21;11.20;99.90
18733;DHT22;9495;51.210;2.934;2022-10-31T06:48:50;11.20;99.90
18733;DHT22;9495;51.210;2.934;2022-10-31T06:51:18;11.20;99.90
18733;DHT22;9495;51.210;2.934;2022-10-31T06:53:47;11.20;99.90
18733;DHT22;9495;51.210;2.934;2022-10-31T06:56:16;11.20;99.90
18733;DHT22;9495;51.210;2.934;2022-10-31T06:58:45;11.20;99.90
18733;DHT22;9495;51.210;2.934;2022-10-31T07:01:13;11.20;99.90
18733;DHT22;9495;51.210;2.934;2022-10-31T07:03:41;11.20;99.90
18733;DHT22;9495;51.210;2.934;2022-10-31T07:06:09;11.20;99.90
18733;DHT22;9495;51.210;2.934;2022-10-31T07:08:38;11.30;99.90
18733;DHT22;9495;51.210;2.934;2022-10-31T07:11:06;11.30;99.90
18733;DHT22;9495;51.210;2.934;2022-10-31T07:13:36;11.30;99.90
18733;DHT22;9495;51.210;2.934;2022-10-31T07:16:05;11.30;99.90
18733;DHT22;9495;51.210;2.934;2022-10-31T07:18:38;11.30;99.90
18733;DHT22;9495;51.210;2.934;2022-10-31T07:21:06;11.40;99.90
18733;DHT22;9495;51.210;2.934;2022-10-31T07:23:34;11.50;99.90
18733;DHT22;9495;51.210;2.934;2022-10-31T07:26:03;11.50;99.90
18733;DHT22;9495;51.210;2.934;2022-10-31T07:28:31;11.50;99.90
18733;DHT22;9495;51.210;2.934;2022-10-31T07:31:01;11.60;99.90
18733;DHT22;9495;51.210;2.934;2022-10-31T07:33:29;11.60;99.90
18733;DHT22;9495;51.210;2.934;2022-10-31T07:35:57;11.60;99.90
18733;DHT22;9495;51.210;2.934;2022-10-31T07:38:26;11.60;99.90
18733;DHT22;9495;51.210;2.934;2022-10-31T07:40:54;11.70;99.90
18733;DHT22;9495;51.210;2.934;2022-10-31T07:43:22;11.60;99.90
18733;DHT22;9495;51.210;2.934;2022-10-31T07:45:52;11.60;99.90
18733;DHT22;9495;51.210;2.934;2022-10-31T07:48:22;11.60;99.90
18733;DHT22;9495;51.210;2.934;2022-10-31T07:50:50;11.70;99.90
18733;DHT22;9495;51.210;2.934;2022-10-31T07:53:19;11.80;99.90
18733;DHT22;9495;51.210;2.934;2022-10-31T07:55:47;11.80;99.90
18733;DHT22;9495;51.210;2.934;2022-10-31T07:58:16;11.90;99.90
18733;DHT22;9495;51.210;2.934;2022-10-31T08:00:46;11.90;99.90
18733;DHT22;9495;51.210;2.934;2022-10-31T08:03:16;11.90;99.90
18733;DHT22;9495;51.210;2.934;2022-10-31T08:05:45;12.00;99.90
18733;DHT22;9495;51.210;2.934;2022-10-31T08:08:14;12.00;99.90
18733;DHT22;9495;51.210;2.934;2022-10-31T08:10:43;12.10;99.90
18733;DHT22;9495;51.210;2.934;2022-10-31T08:13:13;12.10;99.90
18733;DHT22;9495;51.210;2.934;2022-10-31T08:15:41;12.10;99.90
18733;DHT22;9495;51.210;2.934;2022-10-31T08:18:12;12.10;99.90
18733;DHT22;9495;51.210;2.934;2022-10-31T08:20:41;12.10;99.90
18733;DHT22;9495;51.210;2.934;2022-10-31T08:23:11;12.20;99.90
18733;DHT22;9495;51.210;2.934;2022-10-31T08:25:40;12.20;99.90
18733;DHT22;9495;51.210;2.934;2022-10-31T08:28:09;12.20;99.90
18733;DHT22;9495;51.210;2.934;2022-10-31T08:30:39;12.20;99.90
18733;DHT22;9495;51.210;2.934;2022-10-31T08:33:10;12.30;99.90
18733;DHT22;9495;51.210;2.934;2022-10-31T08:35:38;12.30;99.90
18733;DHT22;9495;51.210;2.934;2022-10-31T08:38:08;12.40;99.90
18733;DHT22;9495;51.210;2.934;2022-10-31T08:40:38;12.40;99.90
18733;DHT22;9495;51.210;2.934;2022-10-31T08:43:08;12.60;99.90
18733;DHT22;9495;51.210;2.934;2022-10-31T08:45:39;12.50;99.90
18733;DHT22;9495;51.210;2.934;2022-10-31T08:48:09;12.60;99.90
18733;DHT22;9495;51.210;2.934;2022-10-31T08:50:38;12.60;99.90
18733;DHT22;9495;51.210;2.934;2022-10-31T08:53:09;12.60;99.90
18733;DHT22;9495;51.210;2.934;2022-10-31T08:55:40;12.70;99.90
18733;DHT22;9495;51.210;2.934;2022-10-31T08:58:14;12.70;99.90
18733;DHT22;9495;51.210;2.934;2022-10-31T09:00:43;12.80;99.90
18733;DHT22;9495;51.210;2.934;2022-10-31T09:03:12;12.90;99.90
18733;DHT22;9495;51.210;2.934;2022-10-31T09:05:41;12.90;99.90
18733;DHT22;9495;51.210;2.934;2022-10-31T09:08:10;12.90;99.90
18733;DHT22;9495;51.210;2.934;2022-10-31T09:10:43;13.00;99.90
18733;DHT22;9495;51.210;2.934;2022-10-31T09:13:13;14.40;99.90
18733;DHT22;9495;51.210;2.934;2022-10-31T09:15:44;14.70;99.90
18733;DHT22;9495;51.210;2.934;2022-10-31T09:18:13;15.30;99.90
18733;DHT22;9495;51.210;2.934;2022-10-31T09:20:43;15.30;99.90
18733;DHT22;9495;51.210;2.934;2022-10-31T09:23:13;14.80;99.90
18733;DHT22;9495;51.210;2.934;2022-10-31T09:25:43;14.20;99.90
18733;DHT22;9495;51.210;2.934;2022-10-31T09:28:18;13.90;99.90
18733;DHT22;9495;51.210;2.934;2022-10-31T09:30:47;13.80;99.90
18733;DHT22;9495;51.210;2.934;2022-10-31T09:33:17;13.80;99.90
18733;DHT22;9495;51.210;2.934;2022-10-31T09:35:45;14.00;99.90
18733;DHT22;9495;51.210;2.934;2022-10-31T09:38:14;13.80;99.90
18733;DHT22;9495;51.210;2.934;2022-10-31T09:40:46;13.70;99.90
18733;DHT22;9495;51.210;2.934;2022-10-31T09:43:19;13.50;99.90
18733;DHT22;9495;51.210;2.934;2022-10-31T09:45:57;13.30;99.90
18733;DHT22;9495;51.210;2.934;2022-10-31T09:48:40;13.20;99.90
18733;DHT22;9495;51.210;2.934;2022-10-31T09:51:12;13.20;99.90
18733;DHT22;9495;51.210;2.934;2022-10-31T09:53:44;13.20;99.90
18733;DHT22;9495;51.210;2.934;2022-10-31T09:56:18;13.20;99.90
18733;DHT22;9495;51.210;2.934;2022-10-31T09:58:49;13.30;99.90
18733;DHT22;9495;51.210;2.934;2022-10-31T10:01:30;13.30;99.90
18733;DHT22;9495;51.210;2.934;2022-10-31T10:04:02;13.40;99.90
18733;DHT22;9495;51.210;2.934;2022-10-31T10:06:35;13.40;99.90
18733;DHT22;9495;51.210;2.934;2022-10-31T10:09:07;13.60;99.90
18733;DHT22;9495;51.210;2.934;2022-10-31T10:11:46;13.70;99.90
18733;DHT22;9495;51.210;2.934;2022-10-31T10:14:39;13.80;99.90
18733;DHT22;9495;51.210;2.934;2022-10-31T10:17:21;13.90;99.90
18733;DHT22;9495;51.210;2.934;2022-10-31T10:20:11;14.00;99.90
18733;DHT22;9495;51.210;2.934;2022-10-31T10:22:52;14.10;99.90
18733;DHT22;9495;51.210;2.934;2022-10-31T10:25:29;14.20;99.90
18733;DHT22;9495;51.210;2.934;2022-10-31T10:28:11;14.30;99.90
18733;DHT22;9495;51.210;2.934;2022-10-31T10:30:47;14.40;99.90
18733;DHT22;9495;51.210;2.934;2022-10-31T10:33:19;14.50;99.90
18733;DHT22;9495;51.210;2.934;2022-10-31T10:35:50;14.60;99.90
18733;DHT22;9495;51.210;2.934;2022-10-31T10:38:23;14.70;99.90
18733;DHT22;9495;51.210;2.934;2022-10-31T10:40:54;14.80;99.90
18733;DHT22;9495;51.210;2.934;2022-10-31T10:43:31;14.80;99.90
18733;DHT22;9495;51.210;2.934;2022-10-31T10:46:19;14.80;99.90
18733;DHT22;9495;51.210;2.934;2022-10-31T10:49:15;14.80;99.90
18733;DHT22;9495;51.210;2.934;2022-10-31T10:51:46;14.80;99.90
18733;DHT22;9495;51.210;2.934;2022-10-31T10:54:43;14.80;99.90
18733;DHT22;9495;51.210;2.934;2022-10-31T10:57:26;14.80;99.90
18733;DHT22;9495;51.210;2.934;2022-10-31T10:59:57;14.90;99.90
18733;DHT22;9495;51.210;2.934;2022-10-31T11:02:31;14.90;99.90
18733;DHT22;9495;51.210;2.934;2022-10-31T11:05:01;15.00;99.90
18733;DHT22;9495;51.210;2.934;2022-10-31T11:07:38;15.00;99.90
18733;DHT22;9495;51.210;2.934;2022-10-31T11:10:12;15.00;99.90
18733;DHT22;9495;51.210;2.934;2022-10-31T11:12:43;15.10;99.90
18733;DHT22;9495;51.210;2.934;2022-10-31T11:15:20;15.10;99.90
18733;DHT22;9495;51.210;2.934;2022-10-31T11:17:51;15.20;99.90
18733;DHT22;9495;51.210;2.934;2022-10-31T11:20:31;15.30;99.90
18733;DHT22;9495;51.210;2.934;2022-10-31T11:23:14;15.30;99.90
18733;DHT22;9495;51.210;2.934;2022-10-31T11:25:51;15.50;99.90
18733;DHT22;9495;51.210;2.934;2022-10-31T11:28:20;15.60;99.90
18733;DHT22;9495;51.210;2.934;2022-10-31T11:30:52;15.60;99.90
18733;DHT22;9495;51.210;2.934;2022-10-31T11:33:26;15.60;99.90
18733;DHT22;9495;51.210;2.934;2022-10-31T11:35:56;15.70;99.90
18733;DHT22;9495;51.210;2.934;2022-10-31T11:38:31;15.90;99.90
18733;DHT22;9495;51.210;2.934;2022-10-31T11:41:07;15.90;99.90
18733;DHT22;9495;51.210;2.934;2022-10-31T11:43:37;15.90;99.90
18733;DHT22;9495;51.210;2.934;2022-10-31T11:46:11;16.10;99.90
18733;DHT22;9495;51.210;2.934;2022-10-31T11:48:46;16.00;99.90
18733;DHT22;9495;51.210;2.934;2022-10-31T11:51:20;16.10;99.90
18733;DHT22;9495;51.210;2.934;2022-10-31T11:53:52;16.10;99.90
18733;DHT22;9495;51.210;2.934;2022-10-31T11:56:26;16.10;99.90
18733;DHT22;9495;51.210;2.934;2022-10-31T11:58:55;16.00;99.90
18733;DHT22;9495;51.210;2.934;2022-10-31T12:01:26;16.20;99.90
18733;DHT22;9495;51.210;2.934;2022-10-31T12:04:04;16.30;99.90
18733;DHT22;9495;51.210;2.934;2022-10-31T12:06:35;16.50;99.90
18733;DHT22;9495;51.210;2.934;2022-10-31T12:09:14;16.60;99.90
18733;DHT22;9495;51.210;2.934;2022-10-31T12:11:58;16.80;99.90
18733;DHT22;9495;51.210;2.934;2022-10-31T12:14:38;16.80;99.90
18733;DHT22;9495;51.210;2.934;2022-10-31T12:17:14;16.90;99.90
18733;DHT22;9495;51.210;2.934;2022-10-31T12:19:53;17.20;99.90
18733;DHT22;9495;51.210;2.934;2022-10-31T12:22:39;17.10;99.90
18733;DHT22;9495;51.210;2.934;2022-10-31T12:25:21;17.10;99.90
18733;DHT22;9495;51.210;2.934;2022-10-31T12:30:53;17.20;99.90
18733;DHT22;9495;51.210;2.934;2022-10-31T12:33:34;17.50;99.90
18733;DHT22;9495;51.210;2.934;2022-10-31T12:36:27;17.30;99.90
18733;DHT22;9495;51.210;2.934;2022-10-31T12:39:09;17.40;99.90
18733;DHT22;9495;51.210;2.934;2022-10-31T12:41:46;17.50;99.90
18733;DHT22;9495;51.210;2.934;2022-10-31T12:47:28;17.40;99.90
18733;DHT22;9495;51.210;2.934;2022-10-31T12:50:12;17.80;99.90
18733;DHT22;9495;51.210;2.934;2022-10-31T12:52:51;18.20;99.90
18733;DHT22;9495;51.210;2.934;2022-10-31T12:55:40;17.90;99.90
18733;DHT22;9495;51.210;2.934;2022-10-31T12:58:13;17.90;99.90
18733;DHT22;9495;51.210;2.934;2022-10-31T13:00:44;17.80;99.90
18733;DHT22;9495;51.210;2.934;2022-10-31T13:03:23;17.60;99.90
18733;DHT22;9495;51.210;2.934;2022-10-31T13:05:57;18.00;99.90
18733;DHT22;9495;51.210;2.934;2022-10-31T13:08:28;17.80;99.90
18733;DHT22;9495;51.210;2.934;2022-10-31T13:11:05;18.00;99.90
18733;DHT22;9495;51.210;2.934;2022-10-31T13:13:38;18.20;99.90
18733;DHT22;9495;51.210;2.934;2022-10-31T13:16:12;18.30;99.90
18733;DHT22;9495;51.210;2.934;2022-10-31T13:18:44;18.40;99.90
18733;DHT22;9495;51.210;2.934;2022-10-31T13:21:18;18.30;99.90
18733;DHT22;9495;51.210;2.934;2022-10-31T13:23:50;18.20;99.90
18733;DHT22;9495;51.210;2.934;2022-10-31T13:26:26;18.30;99.90
18733;DHT22;9495;51.210;2.934;2022-10-31T13:29:05;18.20;99.90
18733;DHT22;9495;51.210;2.934;2022-10-31T13:31:40;18.40;99.90
18733;DHT22;9495;51.210;2.934;2022-10-31T13:34:24;18.30;99.90
18733;DHT22;9495;51.210;2.934;2022-10-31T13:37:01;18.10;99.90
18733;DHT22;9495;51.210;2.934;2022-10-31T13:39:50;18.00;99.90
18733;DHT22;9495;51.210;2.934;2022-10-31T13:42:25;17.80;99.90
18733;DHT22;9495;51.210;2.934;2022-10-31T13:45:10;18.20;99.90
18733;DHT22;9495;51.210;2.934;2022-10-31T13:47:40;17.80;99.90
18733;DHT22;9495;51.210;2.934;2022-10-31T13:50:20;17.90;99.90
18733;DHT22;9495;51.210;2.934;2022-10-31T13:52:49;17.70;99.90
18733;DHT22;9495;51.210;2.934;2022-10-31T13:55:37;17.60;99.90
18733;DHT22;9495;51.210;2.934;2022-10-31T13:58:21;17.60;99.90
18733;DHT22;9495;51.210;2.934;2022-10-31T14:01:13;17.60;99.90
18733;DHT22;9495;51.210;2.934;2022-10-31T14:03:46;17.60;99.90
18733;DHT22;9495;51.210;2.934;2022-10-31T14:06:37;17.50;99.90
18733;DHT22;9495;51.210;2.934;2022-10-31T14:09:27;17.40;99.90
18733;DHT22;9495;51.210;2.934;2022-10-31T14:11:57;17.40;99.90
18733;DHT22;9495;51.210;2.934;2022-10-31T14:14:33;17.40;99.90
18733;DHT22;9495;51.210;2.934;2022-10-31T14:17:02;17.30;99.90
18733;DHT22;9495;51.210;2.934;2022-10-31T14:19:30;18.10;99.90
18733;DHT22;9495;51.210;2.934;2022-10-31T14:21:59;17.80;99.90
18733;DHT22;9495;51.210;2.934;2022-10-31T14:24:34;18.30;99.90
18733;DHT22;9495;51.210;2.934;2022-10-31T14:27:29;18.30;99.90
18733;DHT22;9495;51.210;2.934;2022-10-31T14:29:53;17.90;99.90
18733;DHT22;9495;51.210;2.934;2022-10-31T14:32:23;17.80;99.90
18733;DHT22;9495;51.210;2.934;2022-10-31T14:34:53;17.60;99.90
18733;DHT22;9495;51.210;2.934;2022-10-31T14:37:35;17.60;99.90
18733;DHT22;9495;51.210;2.934;2022-10-31T14:40:27;17.60;99.90
18733;DHT22;9495;51.210;2.934;2022-10-31T14:43:15;17.50;99.90
18733;DHT22;9495;51.210;2.934;2022-10-31T14:45:51;17.50;99.90
18733;DHT22;9495;51.210;2.934;2022-10-31T14:48:39;17.60;99.90
18733;DHT22;9495;51.210;2.934;2022-10-31T14:51:13;18.10;99.90
18733;DHT22;9495;51.210;2.934;2022-10-31T14:53:45;18.30;99.90
18733;DHT22;9495;51.210;2.934;2022-10-31T14:56:20;18.20;99.90
18733;DHT22;9495;51.210;2.934;2022-10-31T14:58:49;18.30;99.90
18733;DHT22;9495;51.210;2.934;2022-10-31T15:01:23;18.10;99.90
18733;DHT22;9495;51.210;2.934;2022-10-31T15:03:55;18.20;99.90
18733;DHT22;9495;51.210;2.934;2022-10-31T15:06:47;17.90;99.90
18733;DHT22;9495;51.210;2.934;2022-10-31T15:09:24;18.00;99.90
18733;DHT22;9495;51.210;2.934;2022-10-31T15:11:54;17.80;99.90
18733;DHT22;9495;51.210;2.934;2022-10-31T15:14:24;17.90;99.90
18733;DHT22;9495;51.210;2.934;2022-10-31T15:16:53;17.80;99.90
18733;DHT22;9495;51.210;2.934;2022-10-31T15:19:23;17.60;99.90
18733;DHT22;9495;51.210;2.934;2022-10-31T15:21:53;17.60;99.90
18733;DHT22;9495;51.210;2.934;2022-10-31T15:24:24;17.70;99.90
18733;DHT22;9495;51.210;2.934;2022-10-31T15:26:56;17.50;99.90
18733;DHT22;9495;51.210;2.934;2022-10-31T15:29:31;17.60;99.90
18733;DHT22;9495;51.210;2.934;2022-10-31T15:32:00;17.60;99.90
18733;DHT22;9495;51.210;2.934;2022-10-31T15:34:36;17.60;99.90
18733;DHT22;9495;51.210;2.934;2022-10-31T15:37:09;17.70;99.90
18733;DHT22;9495;51.210;2.934;2022-10-31T15:39:39;18.00;99.90
18733;DHT22;9495;51.210;2.934;2022-10-31T15:42:18;17.90;99.90
18733;DHT22;9495;51.210;2.934;2022-10-31T15:44:51;17.90;99.90
18733;DHT22;9495;51.210;2.934;2022-10-31T15:47:21;17.80;99.90
18733;DHT22;9495;51.210;2.934;2022-10-31T15:49:52;17.90;99.90
18733;DHT22;9495;51.210;2.934;2022-10-31T15:52:31;17.70;99.90
18733;DHT22;9495;51.210;2.934;2022-10-31T15:55:03;17.80;99.90
18733;DHT22;9495;51.210;2.934;2022-10-31T15:57:33;17.70;99.90
18733;DHT22;9495;51.210;2.934;2022-10-31T16:00:01;17.50;99.90
18733;DHT22;9495;51.210;2.934;2022-10-31T16:02:30;17.40;99.90
18733;DHT22;9495;51.210;2.934;2022-10-31T16:04:59;17.30;99.90
18733;DHT22;9495;51.210;2.934;2022-10-31T16:07:29;17.50;99.90
18733;DHT22;9495;51.210;2.934;2022-10-31T16:09:59;17.60;99.90
18733;DHT22;9495;51.210;2.934;2022-10-31T16:12:35;17.50;99.90
18733;DHT22;9495;51.210;2.934;2022-10-31T16:15:04;17.30;99.90
18733;DHT22;9495;51.210;2.934;2022-10-31T16:17:34;17.20;99.90
18733;DHT22;9495;51.210;2.934;2022-10-31T16:20:05;17.20;99.90
18733;DHT22;9495;51.210;2.934;2022-10-31T16:22:35;17.20;99.90
18733;DHT22;9495;51.210;2.934;2022-10-31T16:25:05;17.30;99.90
18733;DHT22;9495;51.210;2.934;2022-10-31T16:27:38;17.20;99.90
18733;DHT22;9495;51.210;2.934;2022-10-31T16:30:27;17.20;99.90